createdAt,value
2018-12-07T00:01:29.997Z,102254.92
2018-12-07T00:03:08.978Z,102243.14
2018-12-07T00:04:53.608Z,102254.33
2018-12-07T00:06:30.576Z,102241.81
2018-12-07T00:08:09.045Z,102236.61
2018-12-07T00:09:46.066Z,102229.52
2018-12-07T00:11:22.893Z,102243.48
2018-12-07T00:13:02.002Z,102257.97
2018-12-07T00:16:33.976Z,102259.58
2018-12-07T00:18:09.473Z,102259.89
2018-12-07T00:19:48.112Z,102271.63
2018-12-07T00:21:26.938Z,102266.47
2018-12-07T00:23:05.170Z,102267.32
2018-12-07T00:24:41.025Z,102264.84
2018-12-07T00:26:16.111Z,102249.07
2018-12-07T00:27:52.499Z,102258.69
2018-12-07T00:29:28.836Z,102264.96
2018-12-07T00:31:04.440Z,102272.05
2018-12-07T00:32:46.306Z,102269.36
2018-12-07T00:34:22.761Z,102269.66
2018-12-07T00:36:05.511Z,102260.44
2018-12-07T00:37:40.855Z,102271.33
2018-12-07T00:39:16.724Z,102276.79
2018-12-07T00:40:52.575Z,102277.61
2018-12-07T00:42:28.394Z,102273.55
2018-12-07T00:44:04.152Z,102276.84
2018-12-07T00:45:42.813Z,102272.73
2018-12-07T00:47:23.438Z,102262.69
2018-12-07T00:49:09.918Z,102258.59
2018-12-07T00:52:48.813Z,102213.59
2018-12-07T00:54:31.233Z,102195.10
2018-12-07T00:57:49.829Z,102173.66
2018-12-07T00:59:25.253Z,102138.45
2018-12-07T01:01:00.692Z,102142.84
2018-12-07T01:02:35.985Z,102136.27
2018-12-07T01:04:11.781Z,102123.21
2018-12-07T01:05:47.076Z,102120.98
2018-12-07T01:07:22.719Z,102116.59
2018-12-07T01:08:58.858Z,102094.48
2018-12-07T01:10:34.924Z,102088.46
2018-12-07T01:12:11.371Z,102075.09
2018-12-07T01:13:49.804Z,102063.92
2018-12-07T01:15:28.781Z,102059.27
2018-12-07T01:17:04.338Z,102058.16
2018-12-07T01:18:40.042Z,102050.27
2018-12-07T01:20:16.003Z,102047.23
2018-12-07T01:21:51.553Z,102042.88
2018-12-07T01:23:27.235Z,102045.30
2018-12-07T01:25:02.651Z,102043.37
2018-12-07T01:26:37.816Z,102057.20
2018-12-07T01:28:13.216Z,102047.42
2018-12-07T01:29:48.768Z,102042.83
2018-12-07T01:31:24.412Z,102047.17
2018-12-07T01:32:59.902Z,102045.61
2018-12-07T01:34:35.022Z,102026.73
2018-12-07T01:36:10.463Z,102033.56
2018-12-07T01:37:45.604Z,102030.28
2018-12-07T01:39:21.083Z,102029.42
2018-12-07T01:40:56.467Z,102036.45
2018-12-07T01:42:32.718Z,102033.21
2018-12-07T01:44:08.452Z,102030.91
2018-12-07T01:45:45.106Z,102033.97
2018-12-07T01:47:20.642Z,102022.96
2018-12-07T01:48:56.673Z,102020.31
2018-12-07T01:50:33.231Z,102023.09
2018-12-07T01:52:08.922Z,102019.75
2018-12-07T01:53:45.726Z,102028.17
2018-12-07T01:55:21.990Z,102035.56
2018-12-07T01:56:57.853Z,102019.75
2018-12-07T01:58:33.264Z,102024.62
2018-12-07T02:00:10.049Z,102028.17
2018-12-07T02:01:47.551Z,102021.84
2018-12-07T02:03:25.571Z,102030.24
2018-12-07T02:05:00.932Z,102021.48
2018-12-07T02:06:37.521Z,102017.64
2018-12-07T02:08:12.987Z,102022.60
2018-12-07T02:09:49.351Z,102020.43
2018-12-07T02:11:24.843Z,102015.22
2018-12-07T02:13:00.736Z,102013.59
2018-12-07T02:14:36.112Z,102008.38
2018-12-07T02:16:11.886Z,102006.16
2018-12-07T02:17:47.751Z,102007.27
2018-12-07T02:19:24.178Z,102010.92
2018-12-07T02:21:00.646Z,102004.04
2018-12-07T02:22:36.442Z,102001.61
2018-12-07T02:24:12.209Z,101998.07
2018-12-07T02:25:48.595Z,101989.31
2018-12-07T02:27:23.999Z,101983.68
2018-12-07T02:29:00.241Z,101993.05
2018-12-07T02:30:35.997Z,101981.11
2018-12-07T02:32:11.328Z,101986.78
2018-12-07T02:33:48.121Z,101992.80
2018-12-07T02:35:24.223Z,101994.42
2018-12-07T02:36:59.812Z,101984.41
2018-12-07T02:38:35.644Z,101982.13
2018-12-07T02:40:10.846Z,101976.91
2018-12-07T02:41:46.831Z,101982.37
2018-12-07T02:43:22.444Z,101977.41
2018-12-07T02:44:57.962Z,101971.94
2018-12-07T02:46:34.486Z,101973.31
2018-12-07T02:48:09.757Z,101980.30
2018-12-07T02:49:44.977Z,101973.81
2018-12-07T02:51:20.488Z,101976.55
2018-12-07T02:52:56.130Z,101976.45
2018-12-07T02:54:32.251Z,101957.72
2018-12-07T02:56:07.557Z,101962.43
2018-12-07T02:57:42.829Z,101961.77
2018-12-07T02:59:20.284Z,101956.05
2018-12-07T03:00:59.567Z,101947.09
2018-12-07T03:02:35.024Z,101920.94
2018-12-07T03:04:10.124Z,101928.88
2018-12-07T03:05:45.761Z,101925.03
2018-12-07T03:07:22.791Z,101918.76
2018-12-07T03:08:58.836Z,101923.36
2018-12-07T03:10:34.108Z,101912.55
2018-12-07T03:12:09.304Z,101919.13
2018-12-07T03:13:44.876Z,101913.10
2018-12-07T03:15:21.023Z,101913.91
2018-12-07T03:16:57.428Z,101901.61
2018-12-07T03:18:33.723Z,101895.34
2018-12-07T03:20:09.638Z,101883.94
2018-12-07T03:21:45.212Z,101874.68
2018-12-07T03:23:21.327Z,101871.39
2018-12-07T03:24:56.579Z,101866.73
2018-12-07T03:26:32.119Z,101856.05
2018-12-07T03:28:07.753Z,101847.36
2018-12-07T03:29:43.195Z,101838.10
2018-12-07T03:31:20.448Z,101838.29
2018-12-07T03:32:55.896Z,101838.95
2018-12-07T03:34:31.074Z,101817.45
2018-12-07T03:36:06.569Z,101811.59
2018-12-07T03:37:42.081Z,101811.77
2018-12-07T03:39:19.273Z,101804.44
2018-12-07T03:40:54.900Z,101795.13
2018-12-07T03:42:31.428Z,101798.11
2018-12-07T03:44:07.035Z,101791.03
2018-12-07T03:45:42.846Z,101785.06
2018-12-07T03:47:18.568Z,101777.73
2018-12-07T03:48:53.984Z,101766.88
2018-12-07T03:50:29.808Z,101764.14
2018-12-07T03:52:05.131Z,101761.41
2018-12-07T03:53:44.841Z,101761.84
2018-12-07T03:55:28.433Z,101749.61
2018-12-07T03:57:07.820Z,101745.75
2018-12-07T03:58:53.645Z,101726.76
2018-12-07T04:00:29.260Z,101717.75
2018-12-07T04:02:05.222Z,101712.29
2018-12-07T04:03:41.837Z,101711.80
2018-12-07T04:05:17.680Z,101697.67
2018-12-07T04:06:53.228Z,101690.34
2018-12-07T04:08:29.296Z,101690.28
2018-12-07T04:10:04.659Z,101684.26
2018-12-07T04:11:40.432Z,101682.64
2018-12-07T04:13:16.193Z,101673.64
2018-12-07T04:14:51.495Z,101668.00
2018-12-07T04:16:27.450Z,101662.78
2018-12-07T04:18:02.887Z,101645.34
2018-12-07T04:19:38.216Z,101645.58
2018-12-07T04:21:13.424Z,101638.44
2018-12-07T04:22:50.545Z,101630.73
2018-12-07T04:24:26.016Z,101626.64
2018-12-07T04:26:02.401Z,101623.59
2018-12-07T04:27:37.925Z,101612.24
2018-12-07T04:29:13.291Z,101611.37
2018-12-07T04:30:48.614Z,101621.73
2018-12-07T04:32:23.704Z,101612.48
2018-12-07T04:33:59.278Z,101607.27
2018-12-07T04:35:34.680Z,101608.39
2018-12-07T04:37:10.059Z,101608.95
2018-12-07T04:38:45.341Z,101598.20
2018-12-07T04:40:21.724Z,101575.30
2018-12-07T04:41:57.320Z,101552.77
2018-12-07T04:43:33.228Z,101547.06
2018-12-07T04:45:09.710Z,101525.63
2018-12-07T04:46:45.052Z,101518.56
2018-12-07T04:48:21.378Z,101503.53
2018-12-07T04:49:58.356Z,101488.27
2018-12-07T04:51:33.892Z,101482.31
2018-12-07T04:53:09.941Z,101477.66
2018-12-07T04:54:45.472Z,101470.83
2018-12-07T04:56:21.806Z,101467.78
2018-12-07T04:57:57.046Z,101462.39
2018-12-07T04:59:32.452Z,101452.59
2018-12-07T05:01:08.136Z,101459.27
2018-12-07T05:02:43.678Z,101443.03
2018-12-07T05:04:19.549Z,101430.89
2018-12-07T05:05:54.969Z,101424.23
2018-12-07T05:07:30.479Z,101416.99
2018-12-07T05:09:07.419Z,101416.67
2018-12-07T05:10:42.908Z,101409.61
2018-12-07T05:12:18.745Z,101402.78
2018-12-07T05:13:54.145Z,101400.72
2018-12-07T05:15:29.712Z,101397.67
2018-12-07T05:17:05.006Z,101392.52
2018-12-07T05:18:40.923Z,101394.51
2018-12-07T05:20:16.935Z,101380.80
2018-12-07T05:21:52.709Z,101391.54
2018-12-07T05:23:31.841Z,101393.14
2018-12-07T05:25:07.794Z,101370.92
2018-12-07T05:26:43.971Z,101372.36
2018-12-07T05:28:20.822Z,101373.41
2018-12-07T05:29:56.065Z,101373.97
2018-12-07T05:31:31.980Z,101363.92
2018-12-07T05:33:11.907Z,101369.55
2018-12-07T05:34:47.397Z,101358.47
2018-12-07T05:36:23.488Z,101357.91
2018-12-07T05:37:59.046Z,101342.93
2018-12-07T05:39:37.771Z,101346.42
2018-12-07T05:41:15.257Z,101334.98
2018-12-07T05:42:52.063Z,101322.05
2018-12-07T05:44:28.239Z,101319.80
2018-12-07T05:46:04.903Z,101313.30
2018-12-07T05:47:41.233Z,101306.22
2018-12-07T05:49:18.003Z,101306.88
2018-12-07T05:50:56.629Z,101303.42
2018-12-07T05:52:32.001Z,101309.31
2018-12-07T05:54:08.604Z,101291.94
2018-12-07T05:55:43.809Z,101298.69
2018-12-07T05:57:19.556Z,101291.86
2018-12-07T05:58:55.424Z,101279.73
2018-12-07T06:00:31.057Z,101266.88
2018-12-07T06:02:06.400Z,101255.48
2018-12-07T06:03:42.549Z,101256.20
2018-12-07T06:05:17.716Z,101255.23
2018-12-07T06:06:54.325Z,101236.61
2018-12-07T06:08:29.980Z,101235.16
2018-12-07T06:10:07.631Z,101224.96
2018-12-07T06:11:43.691Z,101212.76
2018-12-07T06:13:21.303Z,101217.84
2018-12-07T06:14:57.258Z,101197.66
2018-12-07T06:16:33.845Z,101197.18
2018-12-07T06:18:10.070Z,101188.19
2018-12-07T06:19:46.116Z,101179.34
2018-12-07T06:21:23.114Z,101138.66
2018-12-07T06:22:59.018Z,101101.06
2018-12-07T06:24:34.337Z,101061.14
2018-12-07T06:26:10.254Z,101027.02
2018-12-07T06:27:48.803Z,100988.73
2018-12-07T06:29:26.097Z,100850.52
2018-12-07T06:31:02.309Z,98448.20
2018-12-07T06:32:38.580Z,98366.70
2018-12-07T06:34:15.001Z,98322.69
2018-12-07T06:35:50.729Z,98284.27
2018-12-07T06:37:25.931Z,98241.01
2018-12-07T06:39:01.808Z,98209.83
2018-12-07T06:40:41.520Z,98196.77
2018-12-07T06:42:19.327Z,98173.97
2018-12-07T06:43:54.664Z,98153.52
2018-12-07T06:45:31.423Z,98141.61
2018-12-07T06:47:09.483Z,98121.38
2018-12-07T06:48:52.499Z,98103.25
2018-12-07T06:50:28.882Z,98096.81
2018-12-07T06:52:05.193Z,98089.19
2018-12-07T06:53:42.078Z,98076.72
2018-12-07T06:55:17.563Z,98067.77
2018-12-07T06:56:53.615Z,98057.45
2018-12-07T06:58:29.832Z,98047.70
2018-12-07T07:00:22.417Z,98051.19
2018-12-07T07:01:58.098Z,98035.02
2018-12-07T07:03:34.158Z,98030.94
2018-12-07T07:05:11.652Z,98026.06
2018-12-07T07:06:48.706Z,98026.66
2018-12-07T07:08:24.772Z,98019.62
2018-12-07T07:10:01.213Z,98016.89
2018-12-07T07:11:36.807Z,98003.86
2018-12-07T07:13:13.101Z,98000.52
2018-12-07T07:14:49.451Z,97993.73
2018-12-07T07:16:26.519Z,97991.38
2018-12-07T07:18:02.078Z,97986.32
2018-12-07T07:19:37.282Z,97977.73
2018-12-07T07:21:18.331Z,97982.02
2018-12-07T07:22:53.520Z,97968.00
2018-12-07T07:24:29.964Z,97972.09
2018-12-07T07:26:06.033Z,97965.86
2018-12-07T07:27:41.616Z,97960.77
2018-12-07T07:29:17.464Z,97950.05
2018-12-07T07:30:53.162Z,97952.41
2018-12-07T07:32:28.804Z,97950.05
2018-12-07T07:34:04.289Z,97952.96
2018-12-07T07:35:39.475Z,97938.58
2018-12-07T07:37:14.566Z,97939.16
2018-12-07T07:38:49.976Z,97934.08
2018-12-07T07:40:25.288Z,97938.39
2018-12-07T07:42:01.872Z,97936.63
2018-12-07T07:43:37.000Z,97934.48
2018-12-07T07:45:15.500Z,97934.48
2018-12-07T07:46:52.040Z,97926.89
2018-12-07T07:48:27.548Z,97921.44
2018-12-07T07:50:03.252Z,97922.58
2018-12-07T07:51:38.899Z,97928.84
2018-12-07T07:53:14.178Z,97919.08
2018-12-07T07:54:50.963Z,97921.63
2018-12-07T07:56:26.151Z,97918.12
2018-12-07T07:58:02.815Z,97922.98
2018-12-07T07:59:38.287Z,97922.98
2018-12-07T08:01:14.035Z,97925.31
2018-12-07T08:02:51.560Z,97924.13
2018-12-07T08:04:26.717Z,97914.02
2018-12-07T08:06:09.577Z,97914.80
2018-12-07T08:07:49.930Z,97906.61
2018-12-07T08:09:44.497Z,97911.86
2018-12-07T08:11:30.344Z,97899.61
2018-12-07T08:13:10.869Z,97895.48
2018-12-07T08:14:56.667Z,97886.52
2018-12-07T08:16:41.476Z,97891.39
2018-12-07T08:18:18.629Z,97888.66
2018-12-07T08:19:57.824Z,97881.47
2018-12-07T08:21:45.942Z,97879.30
2018-12-07T08:23:31.607Z,97876.14
2018-12-07T08:25:09.657Z,97870.67
2018-12-07T08:26:46.915Z,97878.27
2018-12-07T08:28:32.789Z,97879.89
2018-12-07T08:30:18.333Z,97875.20
2018-12-07T08:31:58.725Z,97867.55
2018-12-07T08:33:39.454Z,97876.28
2018-12-07T08:35:22.661Z,97876.09
2018-12-07T08:36:59.436Z,97870.23
2018-12-07T08:38:40.245Z,97867.95
2018-12-07T08:40:22.705Z,97865.03
2018-12-07T08:42:06.897Z,97864.23
2018-12-07T08:43:54.600Z,97863.45
2018-12-07T08:47:37.839Z,97888.01
2018-12-07T08:49:20.907Z,97865.81
2018-12-07T08:51:11.446Z,97864.19
2018-12-07T08:52:50.268Z,97856.78
2018-12-07T08:54:30.242Z,97844.05
2018-12-07T08:56:10.831Z,97848.78
2018-12-07T08:57:51.233Z,97847.64
2018-12-07T08:59:26.352Z,97850.70
2018-12-07T09:01:06.840Z,97846.53
2018-12-07T09:02:43.318Z,97844.05
2018-12-07T09:04:27.565Z,97844.50
2018-12-07T09:06:03.813Z,97833.40
2018-12-07T09:07:45.328Z,97842.51
2018-12-07T09:09:23.148Z,97836.50
2018-12-07T09:11:03.883Z,97833.03
2018-12-07T09:12:42.436Z,97834.73
2018-12-07T09:14:20.956Z,97832.03
2018-12-07T09:16:00.637Z,97834.58
2018-12-07T09:17:37.513Z,97833.99
2018-12-07T09:19:13.719Z,97833.22
2018-12-07T09:20:54.018Z,97826.21
2018-12-07T09:22:34.592Z,97824.66
2018-12-07T09:25:54.045Z,97832.81
2018-12-07T09:27:30.414Z,97821.86
2018-12-07T09:29:05.673Z,97827.13
2018-12-07T09:30:41.337Z,97812.39
2018-12-07T09:32:17.729Z,97815.34
2018-12-07T09:33:54.870Z,97817.03
2018-12-07T09:35:30.751Z,97813.67
2018-12-07T09:37:06.106Z,97807.03
2018-12-07T09:38:45.051Z,97805.08
2018-12-07T09:40:20.923Z,97808.39
2018-12-07T09:41:57.537Z,97807.08
2018-12-07T09:43:33.672Z,97797.16
2018-12-07T09:45:13.394Z,97796.93
2018-12-07T09:46:56.203Z,97787.38
2018-12-07T09:48:34.692Z,97776.06
2018-12-07T09:50:10.481Z,97768.55
2018-12-07T09:51:47.279Z,97765.95
2018-12-07T09:53:22.468Z,97764.73
2018-12-07T09:55:00.726Z,97760.32
2018-12-07T09:56:36.609Z,97754.50
2018-12-07T09:58:12.248Z,97751.13
2018-12-07T09:59:47.423Z,97742.22
2018-12-07T10:01:22.712Z,97737.36
2018-12-07T10:02:58.942Z,97739.08
2018-12-07T10:04:34.477Z,97740.30
2018-12-07T10:06:09.641Z,97730.89
2018-12-07T10:07:45.659Z,97731.31
2018-12-07T10:09:21.347Z,97713.87
2018-12-07T10:10:56.727Z,97715.84
2018-12-07T10:12:32.971Z,97712.94
2018-12-07T10:14:09.935Z,97716.80
2018-12-07T10:15:45.206Z,97710.25
2018-12-07T10:17:22.645Z,97707.30
2018-12-07T10:18:58.590Z,97709.02
2018-12-07T10:20:33.860Z,97704.11
2018-12-07T10:22:09.470Z,97707.84
2018-12-07T10:23:45.853Z,97697.93
2018-12-07T10:25:21.390Z,97696.38
2018-12-07T10:26:58.607Z,97704.80
2018-12-07T10:28:34.912Z,97691.37
2018-12-07T10:30:11.028Z,97690.97
2018-12-07T10:31:49.225Z,97678.70
2018-12-07T10:33:25.305Z,97681.20
2018-12-07T10:35:02.501Z,97687.55
2018-12-07T10:36:41.976Z,97672.23
2018-12-07T10:38:19.041Z,97674.01
2018-12-07T10:39:55.549Z,97671.69
2018-12-07T10:41:36.056Z,97659.59
2018-12-07T10:43:12.466Z,97655.14
2018-12-07T10:44:48.460Z,97658.77
2018-12-07T10:46:24.951Z,97660.45
2018-12-07T10:48:00.304Z,97657.23
2018-12-07T10:49:43.280Z,97649.28
2018-12-07T10:51:32.785Z,97643.05
2018-12-07T10:53:15.913Z,97639.03
2018-12-07T10:56:38.195Z,97616.48
2018-12-07T10:58:18.041Z,97625.26
2018-12-07T10:59:53.822Z,97627.22
2018-12-07T11:01:34.199Z,97622.58
2018-12-07T11:03:15.221Z,97620.53
2018-12-07T11:04:56.603Z,97616.30
2018-12-07T11:06:37.403Z,97608.94
2018-12-07T11:08:21.918Z,97610.48
2018-12-07T11:10:09.253Z,97602.53
2018-12-07T11:13:55.581Z,97605.34
2018-12-07T11:15:41.909Z,97570.65
2018-12-07T11:17:25.317Z,97572.01
2018-12-07T11:19:06.360Z,97563.31
2018-12-07T11:20:48.535Z,97565.03
2018-12-07T11:22:29.645Z,97559.94
2018-12-07T11:24:10.209Z,97559.73
2018-12-07T11:25:50.403Z,97555.84
2018-12-07T11:27:30.681Z,97556.44
2018-12-07T11:29:10.744Z,97551.96
2018-12-07T11:30:51.135Z,97549.41
2018-12-07T11:32:32.542Z,97538.11
2018-12-07T11:34:12.790Z,97536.57
2018-12-07T11:35:49.237Z,97546.45
2018-12-07T11:37:24.501Z,97532.87
2018-12-07T11:39:01.225Z,97545.68
2018-12-07T11:40:38.307Z,97540.68
2018-12-07T11:42:15.395Z,97534.33
2018-12-07T11:43:52.180Z,97529.31
2018-12-07T11:45:28.630Z,97526.50
2018-12-07T11:47:08.156Z,97529.23
2018-12-07T11:48:44.563Z,97530.95
2018-12-07T11:50:24.597Z,97518.26
2018-12-07T11:52:15.866Z,97509.30
2018-12-07T11:53:54.112Z,97497.97
2018-12-07T11:55:32.907Z,97501.95
2018-12-07T11:57:08.267Z,97502.48
2018-12-07T11:58:44.221Z,97501.06
2018-12-07T12:00:21.547Z,97497.73
2018-12-07T12:01:57.526Z,97496.02
2018-12-07T12:03:33.092Z,97497.23
2018-12-07T12:05:08.539Z,97486.65
2018-12-07T12:06:43.781Z,97485.16
2018-12-07T12:08:20.523Z,97480.30
2018-12-07T12:10:19.975Z,97478.34
2018-12-07T12:11:55.077Z,97475.31
2018-12-07T12:13:32.304Z,97473.77
2018-12-07T12:15:09.679Z,97470.04
2018-12-07T12:16:44.960Z,97460.13
2018-12-07T12:18:21.149Z,97454.86
2018-12-07T12:19:58.398Z,97430.18
2018-12-07T12:21:35.438Z,97418.32
2018-12-07T12:23:11.640Z,97421.47
2018-12-07T12:24:48.851Z,97416.30
2018-12-07T12:26:24.039Z,97422.70
2018-12-07T12:28:00.652Z,97412.30
2018-12-07T12:29:35.976Z,97400.52
2018-12-07T12:31:13.779Z,97397.80
2018-12-07T12:32:49.493Z,97403.25
2018-12-07T12:34:26.702Z,97400.70
2018-12-07T12:36:02.887Z,97396.14
2018-12-07T12:37:40.485Z,97406.11
2018-12-07T12:39:17.279Z,97396.67
2018-12-07T12:40:53.494Z,97391.39
2018-12-07T12:42:34.455Z,97387.47
2018-12-07T12:44:11.224Z,97383.20
2018-12-07T12:45:50.018Z,97375.33
2018-12-07T12:47:27.407Z,97371.94
2018-12-07T12:49:04.699Z,97367.32
2018-12-07T12:50:39.888Z,97363.05
2018-12-07T12:52:17.011Z,97360.41
2018-12-07T12:53:53.433Z,97357.96
2018-12-07T12:55:29.513Z,97354.81
2018-12-07T12:57:07.669Z,97350.79
2018-12-07T12:58:48.490Z,97349.50
2018-12-07T13:00:25.679Z,97328.14
2018-12-07T13:02:03.484Z,97327.30
2018-12-07T13:03:39.429Z,97327.54
2018-12-07T13:05:14.914Z,97321.84
2018-12-07T13:06:53.115Z,97295.47
2018-12-07T13:08:33.314Z,97302.20
2018-12-07T13:10:10.812Z,97286.61
2018-12-07T13:11:51.182Z,97274.09
2018-12-07T13:13:27.956Z,97274.34
2018-12-07T13:15:08.559Z,97278.85
2018-12-07T13:16:48.655Z,97272.77
2018-12-07T13:18:26.124Z,97270.84
2018-12-07T13:20:01.917Z,97272.38
2018-12-07T13:21:43.129Z,97259.83
2018-12-07T13:25:02.833Z,97257.80
2018-12-07T13:26:47.256Z,97252.59
2018-12-07T13:28:29.709Z,97245.07
2018-12-07T13:30:09.756Z,97229.48
2018-12-07T13:31:48.259Z,97218.67
2018-12-07T13:33:27.347Z,97230.78
2018-12-07T13:35:03.379Z,97221.05
2018-12-07T13:36:41.558Z,97206.30
2018-12-07T13:38:23.058Z,97224.13
2018-12-07T13:39:58.878Z,97226.27
2018-12-07T13:41:37.390Z,97220.98
2018-12-07T13:43:17.869Z,97223.78
2018-12-07T13:44:54.675Z,97218.33
2018-12-07T13:46:31.562Z,97223.02
2018-12-07T13:48:12.500Z,97212.03
2018-12-07T13:49:56.691Z,97209.63
2018-12-07T13:51:34.068Z,97198.98
2018-12-07T13:53:12.034Z,97210.15
2018-12-07T13:54:47.654Z,97208.96
2018-12-07T13:56:23.747Z,97206.83
2018-12-07T13:58:03.053Z,97205.39
2018-12-07T13:59:40.148Z,97195.25
2018-12-07T14:01:15.869Z,97189.80
2018-12-07T14:02:54.387Z,97190.64
2018-12-07T14:04:32.178Z,97187.56
2018-12-07T14:06:09.197Z,97190.29
2018-12-07T14:07:46.199Z,97192.28
2018-12-07T14:09:26.144Z,97180.84
2018-12-07T14:11:05.070Z,97178.96
2018-12-07T14:12:42.373Z,97161.66
2018-12-07T14:14:18.945Z,97173.75
2018-12-07T14:15:58.267Z,97178.96
2018-12-07T14:17:35.854Z,97172.73
2018-12-07T14:19:14.046Z,97171.45
2018-12-07T14:22:58.322Z,97172.56
2018-12-07T14:24:35.573Z,97158.23
2018-12-07T14:26:11.623Z,97154.00
2018-12-07T14:27:49.399Z,97150.05
2018-12-07T14:29:29.604Z,97156.73
2018-12-07T14:31:05.938Z,97163.02
2018-12-07T14:32:43.301Z,97151.52
2018-12-07T14:34:28.661Z,97151.70
2018-12-07T14:36:20.890Z,97144.59
2018-12-07T14:38:11.889Z,97139.15
2018-12-07T14:39:54.962Z,97138.90
2018-12-07T14:41:48.391Z,97136.28
2018-12-07T14:43:47.335Z,97120.23
2018-12-07T14:45:25.709Z,97120.69
2018-12-07T14:47:03.530Z,97111.28
2018-12-07T14:48:41.160Z,97111.05
2018-12-07T14:50:18.778Z,97105.24
2018-12-07T14:51:55.567Z,97106.02
2018-12-07T14:53:34.465Z,97092.97
2018-12-07T14:55:15.009Z,97099.79
2018-12-07T14:56:54.682Z,97097.31
2018-12-07T14:58:32.379Z,97097.41
2018-12-07T15:00:11.583Z,97082.31
2018-12-07T15:01:48.950Z,97088.29
2018-12-07T15:03:24.502Z,97094.59
2018-12-07T15:05:08.889Z,97064.59
2018-12-07T15:06:45.600Z,97072.43
2018-12-07T15:08:21.953Z,97073.80
2018-12-07T15:09:58.667Z,97061.98
2018-12-07T15:11:34.940Z,97076.09
2018-12-07T15:13:12.682Z,97081.20
2018-12-07T15:14:50.071Z,97069.53
2018-12-07T15:16:26.303Z,97063.17
2018-12-07T15:18:02.977Z,97060.27
2018-12-07T15:19:38.932Z,97056.95
2018-12-07T15:21:14.515Z,97049.53
2018-12-07T15:22:51.432Z,97047.83
2018-12-07T15:24:29.449Z,97045.70
2018-12-07T15:26:05.440Z,97042.80
2018-12-07T15:27:44.865Z,97037.77
2018-12-07T15:29:22.643Z,97036.92
2018-12-07T15:30:59.223Z,97032.83
2018-12-07T15:32:35.541Z,97012.05
2018-12-07T15:34:11.009Z,97014.67
2018-12-07T15:35:58.618Z,97020.89
2018-12-07T15:37:36.081Z,97004.13
2018-12-07T15:39:16.660Z,96998.26
2018-12-07T15:40:53.681Z,96988.20
2018-12-07T15:42:31.868Z,96988.28
2018-12-07T15:44:16.251Z,96976.44
2018-12-07T15:45:55.445Z,96972.95
2018-12-07T15:47:34.197Z,96967.67
2018-12-07T15:49:11.210Z,96959.75
2018-12-07T15:50:54.111Z,96948.19
2018-12-07T15:52:33.003Z,96950.81
2018-12-07T15:54:12.333Z,96950.99
2018-12-07T15:55:49.323Z,96942.30
2018-12-07T15:57:25.471Z,96937.28
2018-12-07T15:59:03.286Z,96936.36
2018-12-07T16:00:55.099Z,96912.34
2018-12-07T16:04:24.556Z,96909.45
2018-12-07T16:06:02.885Z,96900.17
2018-12-07T16:07:39.814Z,96896.61
2018-12-07T16:09:23.853Z,96887.99
2018-12-07T16:11:01.705Z,96868.86
2018-12-07T16:12:43.476Z,96875.33
2018-12-07T16:14:20.874Z,96854.57
2018-12-07T16:15:57.384Z,96849.62
2018-12-07T16:17:39.203Z,96840.52
2018-12-07T16:19:16.404Z,96842.30
2018-12-07T16:20:53.800Z,96830.81
2018-12-07T16:22:31.077Z,96819.52
2018-12-07T16:24:09.313Z,96816.80
2018-12-07T16:25:46.666Z,96811.18
2018-12-07T16:27:25.309Z,96808.80
2018-12-07T16:29:02.945Z,96788.28
2018-12-07T16:30:39.431Z,96790.16
2018-12-07T16:32:17.737Z,96776.12
2018-12-07T16:33:55.414Z,96758.25
2018-12-07T16:35:34.033Z,96757.40
2018-12-07T16:37:14.571Z,96751.44
2018-12-07T16:38:53.634Z,96749.48
2018-12-07T16:40:33.469Z,96744.30
2018-12-07T16:42:10.123Z,96739.19
2018-12-07T16:43:46.815Z,96738.85
2018-12-07T16:45:30.268Z,96736.30
2018-12-07T16:47:10.206Z,96721.02
2018-12-07T16:48:55.986Z,96715.87
2018-12-07T16:50:34.590Z,96711.31
2018-12-07T16:52:09.973Z,96711.91
2018-12-07T16:53:45.282Z,96704.00
2018-12-07T16:55:22.594Z,96702.21
2018-12-07T16:56:59.098Z,96696.77
2018-12-07T16:58:36.532Z,96694.81
2018-12-07T17:00:17.815Z,96690.64
2018-12-07T17:01:55.817Z,96682.81
2018-12-07T17:03:41.579Z,96676.77
2018-12-07T17:05:24.100Z,96665.34
2018-12-07T17:07:13.130Z,96659.76
2018-12-07T17:08:53.954Z,96660.61
2018-12-07T17:10:30.561Z,96655.16
2018-12-07T17:12:06.797Z,96649.55
2018-12-07T17:13:44.315Z,96651.94
2018-12-07T17:15:24.627Z,96645.47
2018-12-07T17:17:01.571Z,96627.77
2018-12-07T17:18:40.804Z,96627.44
2018-12-07T17:20:19.447Z,96626.42
2018-12-07T17:21:58.379Z,96620.12
2018-12-07T17:23:39.167Z,96609.74
2018-12-07T17:25:15.490Z,96603.11
2018-12-07T17:26:52.930Z,96607.62
2018-12-07T17:28:29.515Z,96601.58
2018-12-07T17:30:10.168Z,96588.39
2018-12-07T17:31:52.430Z,96586.86
2018-12-07T17:33:31.441Z,96581.08
2018-12-07T17:35:12.326Z,96587.03
2018-12-07T17:36:49.723Z,96577.67
2018-12-07T17:38:33.662Z,96580.30
2018-12-07T17:40:14.346Z,96575.05
2018-12-07T17:41:57.742Z,96564.83
2018-12-07T17:43:42.646Z,96555.98
2018-12-07T17:45:23.859Z,96551.44
2018-12-07T17:46:59.865Z,96550.38
2018-12-07T17:48:36.595Z,96546.47
2018-12-07T17:50:17.419Z,96538.89
2018-12-07T17:51:54.983Z,96542.77
2018-12-07T17:53:31.276Z,96544.34
2018-12-07T17:55:08.903Z,96540.37
2018-12-07T17:56:48.337Z,96536.89
2018-12-07T17:58:25.732Z,96532.09
2018-12-07T18:00:13.916Z,96530.42
2018-12-07T18:03:46.520Z,96519.75
2018-12-07T18:05:24.346Z,96514.13
2018-12-07T18:07:00.720Z,96520.17
2018-12-07T18:08:42.249Z,96515.33
2018-12-07T18:10:19.908Z,96511.08
2018-12-07T18:11:58.863Z,96524.52
2018-12-07T18:13:39.386Z,96526.38
2018-12-07T18:15:25.081Z,96523.76
2018-12-07T18:17:03.135Z,96515.59
2018-12-07T18:18:57.722Z,96507.59
2018-12-07T18:20:43.145Z,96529.10
2018-12-07T18:22:19.083Z,96525.88
2018-12-07T18:24:03.881Z,96540.55
2018-12-07T18:25:44.151Z,96555.66
2018-12-07T18:27:23.836Z,96565.81
2018-12-07T18:29:00.244Z,96565.39
2018-12-07T18:30:39.422Z,96548.34
2018-12-07T18:32:16.722Z,96570.55
2018-12-07T18:33:54.479Z,96588.99
2018-12-07T18:35:30.597Z,96587.38
2018-12-07T18:37:06.959Z,96588.95
2018-12-07T18:38:45.188Z,96592.27
2018-12-07T18:40:24.120Z,96601.11
2018-12-07T18:42:00.972Z,96597.88
2018-12-07T18:43:36.978Z,96591.11
2018-12-07T18:45:15.469Z,96611.25
2018-12-07T18:46:55.502Z,96612.13
2018-12-07T18:48:34.222Z,96613.91
2018-12-07T18:50:17.919Z,96607.03
2018-12-07T18:51:56.570Z,96607.73
2018-12-07T18:53:35.687Z,96605.17
2018-12-07T18:55:16.776Z,96604.66
2018-12-07T18:57:05.847Z,96605.25
2018-12-07T18:59:12.006Z,96608.08
2018-12-07T19:00:57.772Z,96619.63
2018-12-07T19:02:45.935Z,96619.28
2018-12-07T19:04:23.716Z,96600.51
2018-12-07T19:06:10.689Z,96624.80
2018-12-07T19:07:51.291Z,96637.14
2018-12-07T19:09:31.280Z,96640.94
2018-12-07T19:11:10.131Z,96655.37
2018-12-07T19:14:51.508Z,96660.44
2018-12-07T19:16:35.333Z,96669.45
2018-12-07T19:18:14.115Z,96659.00
2018-12-07T19:19:50.235Z,96685.49
2018-12-07T19:21:29.919Z,96695.14
2018-12-07T19:23:09.740Z,96699.09